createdAt,value
2022-08-29T00:00:09.784Z,101715.94
2022-08-29T00:02:46.047Z,101713.53
2022-08-29T00:05:12.584Z,101721.94
2022-08-29T00:07:39.363Z,101713.56
2022-08-29T00:10:07.329Z,101705.91
2022-08-29T00:12:33.818Z,101705.97
2022-08-29T00:15:00.362Z,101716.84
2022-08-29T00:17:26.847Z,101719.28
2022-08-29T00:19:53.370Z,101712.91
2022-08-29T00:22:19.810Z,101715.69
2022-08-29T00:24:46.293Z,101710.56
2022-08-29T00:27:12.834Z,101707.38
2022-08-29T00:29:39.842Z,101716.97
2022-08-29T00:32:06.689Z,101711.03
2022-08-29T00:34:33.434Z,101709.91
2022-08-29T00:36:59.950Z,101711.50
2022-08-29T00:39:26.479Z,101704.41
2022-08-29T00:41:53.445Z,101719.13
2022-08-29T00:44:20.079Z,101716.31
2022-08-29T00:46:52.045Z,101718.69
2022-08-29T00:49:24.713Z,101713.88
2022-08-29T00:51:52.653Z,101713.13
2022-08-29T00:54:19.390Z,101719.94
2022-08-29T00:56:46.498Z,101717.97
2022-08-29T00:59:36.841Z,101718.81
2022-08-29T01:02:04.948Z,101717.19
2022-08-29T01:04:32.763Z,101724.34
2022-08-29T01:07:00.093Z,101708.44
2022-08-29T01:09:28.404Z,101710.84
2022-08-29T01:12:14.438Z,101710.91
2022-08-29T01:14:59.574Z,101709.34
2022-08-29T01:17:31.356Z,101708.59
2022-08-29T01:20:00.695Z,101709.41
2022-08-29T01:22:58.120Z,101713.88
2022-08-29T01:25:27.351Z,101706.72
2022-08-29T01:28:33.778Z,101709.97
2022-08-29T01:31:13.259Z,101718.34
2022-08-29T01:33:49.831Z,101716.78
2022-08-29T01:36:24.005Z,101709.25
2022-08-29T01:38:50.564Z,101703.31
2022-08-29T01:41:20.457Z,101717.25
2022-08-29T01:43:51.882Z,101713.66
2022-08-29T01:46:26.169Z,101716.09
2022-08-29T01:48:52.794Z,101717.69
2022-08-29T01:51:20.128Z,101720.13
2022-08-29T01:53:47.039Z,101730.84
2022-08-29T01:56:19.801Z,101721.66
2022-08-29T01:58:48.504Z,101726.88
2022-08-29T02:01:18.404Z,101729.66
2022-08-29T02:03:48.883Z,101725.66
2022-08-29T02:06:15.613Z,101731.28
2022-08-29T02:08:44.344Z,101738.47
2022-08-29T02:11:11.444Z,101734.91
2022-08-29T02:13:40.982Z,101741.69
2022-08-29T02:16:07.631Z,101732.53
2022-08-29T02:18:34.259Z,101726.56
2022-08-29T02:21:01.776Z,101730.97
2022-08-29T02:23:31.270Z,101744.91
2022-08-29T02:25:58.639Z,101731.38
2022-08-29T02:28:25.123Z,101732.16
2022-08-29T02:30:56.741Z,101732.19
2022-08-29T02:33:24.789Z,101740.16
2022-08-29T02:35:53.253Z,101740.56
2022-08-29T02:38:20.517Z,101742.59
2022-08-29T02:40:48.580Z,101744.19
2022-08-29T02:43:18.029Z,101754.91
2022-08-29T02:45:45.489Z,101750.97
2022-08-29T02:48:12.873Z,101752.13
2022-08-29T02:50:41.254Z,101742.19
2022-08-29T02:53:07.728Z,101748.97
2022-08-29T02:55:34.336Z,101745.38
2022-08-29T02:58:01.331Z,101744.97
2022-08-29T03:00:28.546Z,101746.97
2022-08-29T03:02:56.693Z,101750.56
2022-08-29T03:05:27.403Z,101735.84
2022-08-29T03:07:55.637Z,101749.78
2022-08-29T03:10:23.127Z,101739.81
2022-08-29T03:12:49.859Z,101743.41
2022-08-29T03:15:17.539Z,101753.75
2022-08-29T03:17:44.798Z,101743.81
2022-08-29T03:20:12.380Z,101761.72
2022-08-29T03:22:39.737Z,101753.34
2022-08-29T03:25:07.843Z,101742.22
2022-08-29T03:27:34.778Z,101750.56
2022-08-29T03:30:01.819Z,101742.63
2022-08-29T03:32:28.649Z,101744.63
2022-08-29T03:34:55.235Z,101730.31
2022-08-29T03:37:22.047Z,101729.09
2022-08-29T03:39:50.876Z,101740.22
2022-08-29T03:42:17.557Z,101748.19
2022-08-29T03:44:44.096Z,101744.22
2022-08-29T03:47:10.691Z,101735.47
2022-08-29T03:49:37.703Z,101736.28
2022-08-29T03:52:05.578Z,101739.44
2022-08-29T03:54:33.172Z,101739.88
2022-08-29T03:56:59.674Z,101736.66
2022-08-29T03:59:26.138Z,101723.94
2022-08-29T04:01:52.611Z,101719.97
2022-08-29T04:04:39.211Z,101727.50
2022-08-29T04:07:06.792Z,101729.91
2022-08-29T04:09:33.331Z,101721.16
2022-08-29T04:12:00.267Z,101721.94
2022-08-29T04:14:26.847Z,101720.34
2022-08-29T04:16:53.358Z,101724.34
2022-08-29T04:19:21.051Z,101729.09
2022-08-29T04:21:48.932Z,101727.13
2022-08-29T04:24:16.335Z,101727.09
2022-08-29T04:26:42.838Z,101732.66
2022-08-29T04:29:11.187Z,101737.81
2022-08-29T04:31:39.166Z,101730.25
2022-08-29T04:34:07.451Z,101727.09
2022-08-29T04:36:38.918Z,101735.06
2022-08-29T04:39:06.197Z,101733.06
2022-08-29T04:41:33.789Z,101730.28
2022-08-29T04:44:01.678Z,101734.66
2022-08-29T04:46:28.186Z,101731.84
2022-08-29T04:48:55.176Z,101739.00
2022-08-29T04:51:22.678Z,101733.84
2022-08-29T04:53:53.217Z,101730.69
2022-08-29T04:56:21.277Z,101731.84
2022-08-29T04:58:48.122Z,101742.59
2022-08-29T05:01:17.171Z,101740.63
2022-08-29T05:03:44.009Z,101743.00
2022-08-29T05:06:12.803Z,101745.38
2022-08-29T05:08:41.838Z,101751.34
2022-08-29T05:11:22.856Z,101739.41
2022-08-29T05:13:53.238Z,101739.88
2022-08-29T05:16:20.189Z,101747.81
2022-08-29T05:18:46.922Z,101753.38
2022-08-29T05:21:15.201Z,101758.16
2022-08-29T05:23:41.728Z,101748.19
2022-08-29T05:26:08.354Z,101749.78
2022-08-29T05:28:35.828Z,101756.16
2022-08-29T05:31:02.595Z,101761.72
2022-08-29T05:33:29.147Z,101768.88
2022-08-29T05:35:56.305Z,101754.16
2022-08-29T05:38:22.820Z,101763.69
2022-08-29T05:40:49.468Z,101770.44
2022-08-29T05:43:16.202Z,101774.03
2022-08-29T05:45:42.935Z,101776.81
2022-08-29T05:48:09.721Z,101770.84
2022-08-29T05:50:44.125Z,101775.63
2022-08-29T05:53:13.381Z,101760.91
2022-08-29T05:55:44.266Z,101760.88
2022-08-29T05:58:11.974Z,101758.09
2022-08-29T06:00:46.183Z,101761.69
2022-08-29T06:03:13.783Z,101770.41
2022-08-29T06:05:41.300Z,101764.88
2022-08-29T06:08:08.130Z,101776.81
2022-08-29T06:10:39.359Z,101790.34
2022-08-29T06:13:05.831Z,101795.91
2022-08-29T06:15:33.077Z,101780.38
2022-08-29T06:17:59.576Z,101778.78
2022-08-29T06:20:26.192Z,101781.53
2022-08-29T06:22:52.712Z,101784.66
2022-08-29T06:25:38.561Z,101778.25
2022-08-29T06:28:05.776Z,101782.94
2022-08-29T06:30:33.572Z,101778.88
2022-08-29T06:33:01.386Z,101772.03
2022-08-29T06:35:28.427Z,101767.56
2022-08-29T06:37:55.283Z,101769.84
2022-08-29T06:40:21.915Z,101776.13
2022-08-29T06:42:48.932Z,101781.63
2022-08-29T06:45:15.653Z,101773.13
2022-08-29T06:47:43.345Z,101776.19
2022-08-29T06:50:10.123Z,101778.50
2022-08-29T06:52:36.580Z,101781.28
2022-08-29T06:55:03.389Z,101792.47
2022-08-29T06:57:29.988Z,101790.88
2022-08-29T06:59:56.640Z,101794.84
2022-08-29T07:02:23.440Z,101798.00
2022-08-29T07:04:49.956Z,101797.16
2022-08-29T07:07:16.754Z,101802.59
2022-08-29T07:09:44.271Z,101802.91
2022-08-29T07:12:10.858Z,101808.03
2022-08-29T07:14:37.724Z,101805.97
2022-08-29T07:17:04.287Z,101807.44
2022-08-29T07:19:30.782Z,101811.75
2022-08-29T07:21:58.706Z,101800.47
2022-08-29T07:24:26.318Z,101813.13
2022-08-29T07:26:52.881Z,101805.06
2022-08-29T07:29:21.890Z,101810.88
2022-08-29T07:31:49.074Z,101802.34
2022-08-29T07:34:15.963Z,101806.88
2022-08-29T07:36:43.014Z,101807.41
2022-08-29T07:39:16.135Z,101800.03
2022-08-29T07:41:44.489Z,101810.16
2022-08-29T07:44:12.403Z,101821.97
2022-08-29T07:46:40.963Z,101809.78
2022-08-29T07:49:07.855Z,101814.41
2022-08-29T07:51:35.428Z,101806.97
2022-08-29T07:54:02.457Z,101802.25
2022-08-29T07:56:37.775Z,101797.53
2022-08-29T07:59:04.827Z,101808.09
2022-08-29T08:01:31.479Z,101817.31
2022-08-29T08:03:58.424Z,101809.31
2022-08-29T08:06:27.300Z,101807.13
2022-08-29T08:08:54.927Z,101817.16
2022-08-29T08:11:23.055Z,101820.69
2022-08-29T08:13:50.339Z,101804.25
2022-08-29T08:16:20.517Z,101810.28
2022-08-29T08:18:48.034Z,101813.47
2022-08-29T08:21:14.629Z,101812.41
2022-08-29T08:23:42.108Z,101815.72
2022-08-29T08:26:10.116Z,101823.84
2022-08-29T08:28:36.932Z,101821.03
2022-08-29T08:31:07.227Z,101829.66
2022-08-29T08:33:40.155Z,101830.53
2022-08-29T08:36:19.407Z,101820.47
2022-08-29T08:38:46.518Z,101820.69
2022-08-29T08:41:27.054Z,101822.06
2022-08-29T08:44:07.295Z,101823.72
2022-08-29T08:46:43.303Z,101818.16
2022-08-29T08:49:34.418Z,101817.28
2022-08-29T08:52:06.619Z,101815.66
2022-08-29T08:54:42.565Z,101816.81
2022-08-29T08:57:12.888Z,101815.88
2022-08-29T08:59:43.955Z,101816.28
2022-08-29T09:02:28.707Z,101811.03
2022-08-29T09:04:57.903Z,101817.47
2022-08-29T09:07:28.000Z,101814.69
2022-08-29T09:10:01.894Z,101816.50
2022-08-29T09:12:39.378Z,101816.63
2022-08-29T09:15:13.945Z,101815.38
2022-08-29T09:17:48.583Z,101813.59
2022-08-29T09:20:22.211Z,101822.34
2022-08-29T09:23:00.194Z,101829.47
2022-08-29T09:25:29.455Z,101839.41
2022-08-29T09:27:58.265Z,101826.72
2022-08-29T09:30:31.079Z,101830.13
2022-08-29T09:33:02.481Z,101829.50
2022-08-29T09:35:47.420Z,101831.69
2022-08-29T09:38:25.322Z,101828.66
2022-08-29T09:41:01.507Z,101826.41
2022-08-29T09:43:39.360Z,101832.41
2022-08-29T09:46:17.629Z,101828.81
2022-08-29T09:49:09.949Z,101835.91
2022-08-29T09:51:40.138Z,101832.66
2022-08-29T09:54:27.974Z,101829.47
2022-08-29T09:57:01.462Z,101829.16
2022-08-29T09:59:34.688Z,101814.94
2022-08-29T10:02:27.830Z,101822.94
2022-08-29T10:04:59.975Z,101815.06
2022-08-29T10:07:30.479Z,101816.28
2022-08-29T10:10:18.793Z,101827.00
2022-08-29T10:13:06.634Z,101816.88
2022-08-29T10:15:51.001Z,101804.34
2022-08-29T10:18:36.454Z,101810.88
2022-08-29T10:21:18.278Z,101818.19
2022-08-29T10:24:04.821Z,101814.16
2022-08-29T10:26:52.776Z,101808.56
2022-08-29T10:29:31.553Z,101795.47
2022-08-29T10:32:07.495Z,101799.50
2022-08-29T10:35:24.557Z,101798.56
2022-08-29T10:38:13.681Z,101804.69
2022-08-29T10:40:48.624Z,101805.78
2022-08-29T10:43:59.728Z,101806.00
2022-08-29T10:46:44.012Z,101810.09
2022-08-29T10:49:44.432Z,101799.31
2022-08-29T10:52:26.812Z,101794.75
2022-08-29T10:54:56.922Z,101795.31
2022-08-29T10:57:47.911Z,101792.59
2022-08-29T11:00:25.013Z,101798.31
2022-08-29T11:03:07.138Z,101790.31
2022-08-29T11:05:40.568Z,101793.44
2022-08-29T11:08:17.766Z,101789.59
2022-08-29T11:10:49.800Z,101780.31
2022-08-29T11:13:45.577Z,101775.84
2022-08-29T11:16:23.518Z,101777.75
2022-08-29T11:18:55.521Z,101772.72
2022-08-29T11:21:34.757Z,101761.19
2022-08-29T11:24:04.224Z,101757.22
2022-08-29T11:27:07.371Z,101759.97
2022-08-29T11:29:54.327Z,101762.38
2022-08-29T11:32:52.029Z,101748.63
2022-08-29T11:35:24.608Z,101750.59
2022-08-29T11:38:07.786Z,101742.28
2022-08-29T11:41:31.268Z,101741.06
2022-08-29T11:44:15.332Z,101733.91
2022-08-29T11:46:52.154Z,101729.59
2022-08-29T11:49:33.810Z,101727.22
2022-08-29T11:52:12.320Z,101726.16
2022-08-29T11:54:41.367Z,101724.81
2022-08-29T11:57:07.789Z,101727.72
2022-08-29T11:59:49.680Z,101726.19
2022-08-29T12:02:28.424Z,101730.53
2022-08-29T12:04:57.008Z,101730.09
2022-08-29T12:07:36.060Z,101724.59
2022-08-29T12:10:07.580Z,101716.84
2022-08-29T12:12:49.082Z,101714.25
2022-08-29T12:15:26.963Z,101718.06
2022-08-29T12:18:03.818Z,101712.03
2022-08-29T12:20:30.717Z,101716.59
2022-08-29T12:23:06.023Z,101723.09
2022-08-29T12:26:03.823Z,101710.25
2022-08-29T12:28:58.625Z,101716.88
2022-08-29T12:32:18.224Z,101711.47
2022-08-29T12:35:04.325Z,101700.50
2022-08-29T12:37:56.971Z,101697.28
2022-08-29T12:40:23.698Z,101705.88
2022-08-29T12:43:34.465Z,101699.50
2022-08-29T12:46:10.462Z,101690.41
2022-08-29T12:48:57.723Z,101682.47
2022-08-29T12:51:39.972Z,101680.63
2022-08-29T12:54:08.146Z,101688.25
2022-08-29T12:56:42.855Z,101677.66
2022-08-29T12:59:16.204Z,101680.34
2022-08-29T13:01:49.119Z,101675.44
2022-08-29T13:04:21.816Z,101673.81
2022-08-29T13:07:04.626Z,101670.44
2022-08-29T13:09:44.238Z,101667.53
2022-08-29T13:12:10.724Z,101654.75
2022-08-29T13:14:49.392Z,101668.84
2022-08-29T13:17:18.150Z,101655.88
2022-08-29T13:20:22.269Z,101661.03
2022-08-29T13:22:49.206Z,101654.69
2022-08-29T13:25:17.466Z,101658.13
2022-08-29T13:27:48.267Z,101652.13
2022-08-29T13:30:22.830Z,101648.56
2022-08-29T13:32:51.645Z,101648.13
2022-08-29T13:35:19.600Z,101646.91
2022-08-29T13:38:10.664Z,101639.16
2022-08-29T13:40:48.192Z,101634.44
2022-08-29T13:43:33.131Z,101642.34
2022-08-29T13:46:20.199Z,101637.06
2022-08-29T13:48:47.119Z,101640.78
2022-08-29T13:51:13.850Z,101638.53
2022-08-29T13:53:45.505Z,101638.63
2022-08-29T13:56:30.112Z,101629.34
2022-08-29T13:58:58.628Z,101616.41
2022-08-29T14:02:08.415Z,101619.03
2022-08-29T14:04:36.810Z,101616.38
2022-08-29T14:06:59.010Z,101600.22
2022-08-29T14:29:53.938Z,101587.69
2022-08-29T14:32:20.555Z,101592.94
2022-08-29T14:34:51.112Z,101585.34
2022-08-29T14:37:18.712Z,101581.09
2022-08-29T14:39:45.256Z,101585.22
2022-08-29T14:42:16.798Z,101581.06
2022-08-29T14:44:43.374Z,101575.84
2022-08-29T14:47:10.069Z,101580.03
2022-08-29T14:49:36.719Z,101571.75
2022-08-29T14:52:04.462Z,101577.69
2022-08-29T14:54:31.467Z,101579.00
2022-08-29T14:56:58.145Z,101577.69
2022-08-29T14:59:25.639Z,101569.34
2022-08-29T15:01:55.032Z,101572.22
2022-08-29T15:04:35.283Z,101571.72
2022-08-29T15:07:09.063Z,101575.72
2022-08-29T15:09:35.663Z,101560.66
2022-08-29T15:12:03.039Z,101558.69
2022-08-29T15:14:29.930Z,101557.19
2022-08-29T15:16:56.392Z,101556.50
2022-08-29T15:20:24.280Z,101555.34
2022-08-29T15:22:10.820Z,101547.06
2022-08-29T15:24:37.566Z,101555.44
2022-08-29T15:27:04.614Z,101540.13
2022-08-29T15:29:31.304Z,101527.66
2022-08-29T15:31:57.814Z,101541.69
2022-08-29T15:34:25.576Z,101535.66
2022-08-29T15:36:53.137Z,101542.63
2022-08-29T15:39:20.150Z,101537.41
2022-08-29T15:41:46.839Z,101538.56
2022-08-29T15:44:13.813Z,101534.09
2022-08-29T15:46:50.558Z,101534.72
2022-08-29T15:49:19.221Z,101520.56
2022-08-29T15:51:46.116Z,101518.66
2022-08-29T15:54:13.040Z,101512.09
2022-08-29T15:56:40.575Z,101516.38
2022-08-29T15:59:09.383Z,101515.25
2022-08-29T16:01:45.042Z,101515.47
2022-08-29T16:04:13.804Z,101510.19
2022-08-29T16:06:40.670Z,101508.28
2022-08-29T16:09:15.149Z,101501.97
2022-08-29T16:11:44.068Z,101499.28
2022-08-29T16:14:46.679Z,101502.47
2022-08-29T16:16:57.697Z,101502.16
2022-08-29T16:19:24.261Z,101492.22
2022-08-29T16:21:50.981Z,101496.75
2022-08-29T16:24:17.719Z,101498.28
2022-08-29T16:26:45.895Z,101497.44
2022-08-29T16:29:12.992Z,101496.88
2022-08-29T16:31:39.837Z,101499.59
2022-08-29T16:34:06.781Z,101497.28
2022-08-29T16:36:33.311Z,101491.59
2022-08-29T16:39:00.002Z,101494.13
2022-08-29T16:41:28.249Z,101493.81
2022-08-29T16:43:55.185Z,101502.78
2022-08-29T16:46:25.368Z,101499.09
2022-08-29T16:48:52.278Z,101500.09
2022-08-29T16:51:21.846Z,101507.75
2022-08-29T16:53:48.639Z,101506.63
2022-08-29T16:56:16.810Z,101513.00
2022-08-29T16:59:02.006Z,101504.09
2022-08-29T17:01:35.891Z,101507.16
2022-08-29T17:04:04.377Z,101495.50
2022-08-29T17:06:32.441Z,101495.72
2022-08-29T17:08:59.269Z,101498.44
2022-08-29T17:11:25.977Z,101497.34
2022-08-29T17:13:52.451Z,101497.75
2022-08-29T17:16:19.312Z,101504.53
2022-08-29T17:18:46.692Z,101490.22
2022-08-29T17:21:13.830Z,101496.03
2022-08-29T17:23:40.783Z,101491.25
2022-08-29T17:26:10.928Z,101494.19
2022-08-29T17:28:38.822Z,101490.47
2022-08-29T17:31:06.601Z,101499.88
2022-08-29T17:33:33.873Z,101489.38
2022-08-29T17:36:01.058Z,101487.22
2022-08-29T17:38:27.622Z,101490.47
2022-08-29T17:40:58.905Z,101491.59
2022-08-29T17:43:27.498Z,101499.06
2022-08-29T17:45:54.112Z,101496.13
2022-08-29T17:48:21.395Z,101501.19
2022-08-29T17:50:49.039Z,101505.19
2022-08-29T17:53:17.185Z,101509.69
2022-08-29T17:55:44.428Z,101516.03
2022-08-29T17:58:10.999Z,101519.03
2022-08-29T18:00:38.151Z,101515.31
2022-08-29T18:03:04.820Z,101514.38
2022-08-29T18:05:31.341Z,101507.63
2022-08-29T18:07:58.079Z,101511.78
2022-08-29T18:10:25.598Z,101511.69
2022-08-29T18:12:52.086Z,101517.72
2022-08-29T18:15:18.754Z,101511.31
2022-08-29T18:17:45.583Z,101510.88
2022-08-29T18:20:16.112Z,101515.84
2022-08-29T18:22:43.305Z,101515.88
2022-08-29T18:25:11.399Z,101520.59
2022-08-29T18:27:41.922Z,101518.28
2022-08-29T18:30:13.579Z,101517.03
2022-08-29T18:32:41.223Z,101523.84
2022-08-29T18:35:08.891Z,101519.31
2022-08-29T18:37:35.819Z,101517.78
2022-08-29T18:40:04.557Z,101520.44
2022-08-29T18:42:40.444Z,101521.25
2022-08-29T18:45:10.213Z,101518.59
2022-08-29T18:47:37.341Z,101517.81
2022-08-29T18:50:24.899Z,101520.19
2022-08-29T18:52:52.339Z,101521.44
2022-08-29T18:55:19.185Z,101518.78
2022-08-29T18:57:47.063Z,101521.59
2022-08-29T19:00:14.493Z,101517.38
2022-08-29T19:02:41.441Z,101520.16
2022-08-29T19:05:08.335Z,101523.94
2022-08-29T19:07:34.929Z,101521.22
2022-08-29T19:10:01.489Z,101534.09
2022-08-29T19:12:28.034Z,101530.00
2022-08-29T19:14:54.534Z,101539.88
2022-08-29T19:17:21.316Z,101538.28
2022-08-29T19:20:10.311Z,101533.84
2022-08-29T19:22:38.110Z,101539.44
2022-08-29T19:25:06.059Z,101537.69
2022-08-29T19:27:43.206Z,101539.53
2022-08-29T19:30:12.168Z,101540.28
2022-08-29T19:32:39.139Z,101551.84
2022-08-29T19:35:06.061Z,101546.78
2022-08-29T19:37:33.073Z,101548.97
2022-08-29T19:39:59.641Z,101550.81
2022-08-29T19:42:28.125Z,101550.16
2022-08-29T19:44:55.231Z,101550.31
2022-08-29T19:47:23.300Z,101543.22
2022-08-29T19:49:50.943Z,101549.94
2022-08-29T19:52:17.927Z,101552.22
2022-08-29T19:54:44.483Z,101550.31
2022-08-29T19:57:13.427Z,101548.19
2022-08-29T19:59:41.546Z,101546.88
2022-08-29T20:02:09.430Z,101546.66
2022-08-29T20:04:36.353Z,101553.78
2022-08-29T20:07:03.634Z,101552.78
2022-08-29T20:09:31.602Z,101550.69
2022-08-29T20:11:59.052Z,101556.13
2022-08-29T20:14:25.781Z,101561.09
2022-08-29T20:16:52.450Z,101559.53
2022-08-29T20:19:21.362Z,101557.63
2022-08-29T20:21:49.327Z,101556.75
2022-08-29T20:24:16.689Z,101556.97
2022-08-29T20:26:44.804Z,101561.91
2022-08-29T20:29:12.194Z,101562.03
2022-08-29T20:31:40.082Z,101554.34
2022-08-29T20:34:06.854Z,101546.34
2022-08-29T20:36:52.253Z,101555.41
2022-08-29T20:39:21.403Z,101553.47
2022-08-29T20:41:55.557Z,101560.34
2022-08-29T20:44:31.474Z,101557.19
2022-08-29T20:47:00.273Z,101562.63
2022-08-29T20:49:27.150Z,101562.28
2022-08-29T20:51:53.802Z,101555.88
2022-08-29T20:54:23.666Z,101557.44
2022-08-29T20:56:53.688Z,101562.97
2022-08-29T20:59:22.548Z,101563.72
2022-08-29T21:01:52.262Z,101571.84
2022-08-29T21:04:37.760Z,101575.44
2022-08-29T21:07:07.449Z,101570.97
2022-08-29T21:09:35.951Z,101572.06
2022-08-29T21:12:02.805Z,101579.28
2022-08-29T21:14:29.326Z,101580.75
2022-08-29T21:16:57.541Z,101580.75
2022-08-29T21:19:26.346Z,101572.28
2022-08-29T21:21:53.874Z,101572.28
2022-08-29T21:24:20.555Z,101580.53
2022-08-29T21:26:47.992Z,101571.19
2022-08-29T21:29:14.746Z,101571.19
2022-08-29T21:31:41.745Z,101566.75
2022-08-29T21:34:12.933Z,101565.19
2022-08-29T21:36:40.215Z,101574.44
2022-08-29T21:39:09.357Z,101572.88
2022-08-29T21:41:45.300Z,101575.34
2022-08-29T21:44:13.539Z,101576.13
2022-08-29T21:46:45.738Z,101574.31
2022-08-29T21:49:17.090Z,101580.63
2022-08-29T21:51:44.870Z,101575.91
2022-08-29T21:54:14.033Z,101576.81
2022-08-29T21:56:41.657Z,101578.03
2022-08-29T21:59:08.701Z,101569.59
2022-08-29T22:01:38.807Z,101570.50
2022-08-29T22:04:08.847Z,101573.75
2022-08-29T22:06:39.561Z,101567.47
2022-08-29T22:09:10.184Z,101579.63
2022-08-29T22:11:38.492Z,101576.81
2022-08-29T22:14:09.166Z,101577.25
2022-08-29T22:16:37.224Z,101579.84
2022-08-29T22:19:11.980Z,101571.53
2022-08-29T22:21:47.174Z,101577.59
2022-08-29T22:24:16.434Z,101580.88
2022-08-29T22:26:44.023Z,101589.84
2022-08-29T22:29:13.613Z,101593.22
2022-08-29T22:31:42.634Z,101593.78
2022-08-29T22:34:10.283Z,101598.19
2022-08-29T22:36:36.810Z,101597.28
2022-08-29T22:39:04.189Z,101606.06
2022-08-29T22:41:31.207Z,101601.31
2022-08-29T22:44:35.881Z,101609.53
2022-08-29T22:46:45.335Z,101616.06
2022-08-29T22:49:12.016Z,101614.03
2022-08-29T22:51:38.551Z,101621.00
2022-08-29T22:54:23.711Z,101622.25
2022-08-29T22:56:50.309Z,101608.59
2022-08-29T22:59:21.620Z,101616.34
2022-08-29T23:01:48.449Z,101611.63
2022-08-29T23:04:15.167Z,101611.94
2022-08-29T23:06:41.667Z,101611.94
2022-08-29T23:09:08.444Z,101606.00
2022-08-29T23:11:35.272Z,101610.50
2022-08-29T23:14:02.414Z,101614.06
2022-08-29T23:16:32.998Z,101615.69
2022-08-29T23:19:00.894Z,101609.69
2022-08-29T23:21:29.057Z,101604.97
2022-08-29T23:23:58.187Z,101608.56
2022-08-29T23:26:25.487Z,101605.41
2022-08-29T23:28:52.075Z,101613.97
2022-08-29T23:31:20.237Z,101617.97
2022-08-29T23:33:46.747Z,101615.63
2022-08-29T23:36:13.218Z,101619.22
2022-08-29T23:38:40.021Z,101613.25
2022-08-29T23:41:07.127Z,101612.56
2022-08-29T23:43:36.761Z,101619.78
2022-08-29T23:46:04.372Z,101619.44
2022-08-29T23:48:32.096Z,101615.50
2022-08-29T23:50:59.250Z,101620.75
2022-08-29T23:53:25.961Z,101621.66
2022-08-29T23:55:53.311Z,101619.19
2022-08-29T23:58:19.838Z,101621.66
